createdAt,value
2022-09-11T00:01:29.706Z,100935.84
2022-09-11T00:03:58.058Z,100935.06
2022-09-11T00:06:30.125Z,100940.34
2022-09-11T00:09:01.283Z,100940.66
2022-09-11T00:11:31.550Z,100937.94
2022-09-11T00:13:59.630Z,100942.19
2022-09-11T00:16:32.862Z,100938.00
2022-09-11T00:19:03.048Z,100942.38
2022-09-11T00:21:31.231Z,100940.31
2022-09-11T00:23:59.442Z,100934.81
2022-09-11T00:26:27.734Z,100935.59
2022-09-11T00:28:56.165Z,100935.66
2022-09-11T00:31:27.985Z,100934.72
2022-09-11T00:33:57.702Z,100932.00
2022-09-11T00:36:27.351Z,100933.47
2022-09-11T00:38:56.072Z,100934.63
2022-09-11T00:41:26.311Z,100932.31
2022-09-11T00:43:59.220Z,100935.84
2022-09-11T00:46:34.175Z,100936.88
2022-09-11T00:49:07.759Z,100928.13
2022-09-11T00:51:38.744Z,100928.09
2022-09-11T00:54:06.489Z,100928.81
2022-09-11T00:56:38.758Z,100930.75
2022-09-11T00:59:07.854Z,100929.25
2022-09-11T01:01:35.607Z,100934.19
2022-09-11T01:04:07.050Z,100936.66
2022-09-11T01:06:34.842Z,100935.59
2022-09-11T01:09:02.496Z,100939.53
2022-09-11T01:11:46.065Z,100929.09
2022-09-11T01:14:34.263Z,100936.91
2022-09-11T01:17:19.442Z,100943.16
2022-09-11T01:20:22.276Z,100943.78
2022-09-11T01:23:07.472Z,100941.91
2022-09-11T01:25:53.438Z,100945.63
2022-09-11T01:28:25.628Z,100945.88
2022-09-11T01:31:02.496Z,100936.66
2022-09-11T01:33:38.949Z,100936.41
2022-09-11T01:36:10.064Z,100938.88
2022-09-11T01:38:42.034Z,100937.75
2022-09-11T01:41:15.459Z,100938.88
2022-09-11T01:43:51.669Z,100943.13
2022-09-11T01:46:23.849Z,100942.81
2022-09-11T01:48:58.414Z,100939.97
2022-09-11T01:51:30.582Z,100945.88
2022-09-11T01:54:01.610Z,100939.38
2022-09-11T01:56:35.424Z,100949.44
2022-09-11T01:59:10.964Z,100947.31
2022-09-11T02:01:43.140Z,100954.56
2022-09-11T02:04:14.592Z,100958.81
2022-09-11T02:06:48.030Z,100958.09
2022-09-11T02:09:21.135Z,100956.22
2022-09-11T02:11:53.162Z,100951.41
2022-09-11T02:14:28.123Z,100954.06
2022-09-11T02:17:04.867Z,100946.34
2022-09-11T02:19:32.908Z,100948.34
2022-09-11T02:22:00.639Z,100958.63
2022-09-11T02:24:29.083Z,100961.53
2022-09-11T02:27:01.144Z,100955.56
2022-09-11T02:29:30.591Z,100959.00
2022-09-11T02:32:00.398Z,100962.72
2022-09-11T02:34:31.123Z,100966.56
2022-09-11T02:37:16.924Z,100965.78
2022-09-11T02:40:00.400Z,100962.38
2022-09-11T02:42:41.930Z,100967.66
2022-09-11T02:45:23.876Z,100969.34
2022-09-11T02:48:02.004Z,100974.50
2022-09-11T02:50:39.743Z,100973.41
2022-09-11T02:53:13.603Z,100970.06
2022-09-11T02:55:53.745Z,100976.13
2022-09-11T02:58:26.830Z,100977.91
2022-09-11T03:00:57.022Z,100976.31
2022-09-11T03:03:24.994Z,100984.44
2022-09-11T03:05:52.924Z,100987.47
2022-09-11T03:08:20.717Z,100982.03
2022-09-11T03:10:49.981Z,100996.84
2022-09-11T03:13:17.919Z,100991.66
2022-09-11T03:15:45.629Z,100993.03
2022-09-11T03:18:15.880Z,101003.09
2022-09-11T03:20:46.940Z,101009.44
2022-09-11T03:23:14.657Z,101004.69
2022-09-11T03:25:42.409Z,101018.94
2022-09-11T03:28:10.116Z,101019.16
2022-09-11T03:30:37.987Z,101019.16
2022-09-11T03:33:05.649Z,101026.72
2022-09-11T03:35:35.024Z,101020.44
2022-09-11T03:38:02.675Z,101027.56
2022-09-11T03:40:30.969Z,101027.69
2022-09-11T03:42:59.541Z,101027.53
2022-09-11T03:45:27.878Z,101024.84
2022-09-11T03:47:55.821Z,101032.13
2022-09-11T03:50:23.652Z,101039.25
2022-09-11T03:52:52.634Z,101035.19
2022-09-11T03:55:20.579Z,101043.44
2022-09-11T03:57:48.192Z,101044.34
2022-09-11T04:00:16.106Z,101046.88
2022-09-11T04:02:43.737Z,101046.31
2022-09-11T04:05:11.736Z,101049.09
2022-09-11T04:07:39.441Z,101051.88
2022-09-11T04:10:09.476Z,101050.59
2022-09-11T04:12:37.120Z,101057.25
2022-09-11T04:15:05.177Z,101057.28
2022-09-11T04:17:32.939Z,101050.53
2022-09-11T04:20:00.604Z,101046.09
2022-09-11T04:22:28.306Z,101046.50
2022-09-11T04:24:56.107Z,101056.28
2022-09-11T04:27:25.231Z,101052.94
2022-09-11T04:29:52.871Z,101057.66
2022-09-11T04:32:20.592Z,101058.28
2022-09-11T04:34:48.270Z,101060.38
2022-09-11T04:37:16.554Z,101065.84
2022-09-11T04:39:44.501Z,101062.72
2022-09-11T04:42:12.271Z,101055.66
2022-09-11T04:44:42.069Z,101057.97
2022-09-11T04:47:09.782Z,101063.00
2022-09-11T04:49:37.490Z,101058.88
2022-09-11T04:52:07.309Z,101051.72
2022-09-11T04:54:35.522Z,101063.78
2022-09-11T04:57:03.900Z,101051.28
2022-09-11T04:59:31.643Z,101056.78
2022-09-11T05:02:00.693Z,101066.06
2022-09-11T05:04:28.459Z,101062.44
2022-09-11T05:06:56.436Z,101056.28
2022-09-11T05:09:24.222Z,101053.72
2022-09-11T05:11:51.967Z,101052.34
2022-09-11T05:14:19.631Z,101063.53
2022-09-11T05:16:47.324Z,101075.28
2022-09-11T05:19:16.317Z,101074.97
2022-09-11T05:21:43.953Z,101082.47
2022-09-11T05:24:12.004Z,101081.03
2022-09-11T05:26:39.776Z,101078.84
2022-09-11T05:29:09.571Z,101080.78
2022-09-11T05:31:37.967Z,101080.38
2022-09-11T05:34:06.239Z,101091.75
2022-09-11T05:36:36.008Z,101097.88
2022-09-11T05:39:05.180Z,101104.50
2022-09-11T05:41:33.071Z,101108.59
2022-09-11T05:44:00.837Z,101115.28
2022-09-11T05:46:28.648Z,101112.66
2022-09-11T05:48:56.390Z,101115.00
2022-09-11T05:51:24.036Z,101121.75
2022-09-11T05:53:56.700Z,101123.69
2022-09-11T05:56:25.826Z,101123.88
2022-09-11T05:58:54.583Z,101132.59
2022-09-11T06:01:23.692Z,101135.00
2022-09-11T06:03:51.752Z,101143.41
2022-09-11T06:06:21.933Z,101140.66
2022-09-11T06:08:51.832Z,101143.91
2022-09-11T06:11:22.757Z,101143.97
2022-09-11T06:13:51.687Z,101148.31
2022-09-11T06:16:21.622Z,101149.88
2022-09-11T06:18:50.625Z,101144.22
2022-09-11T06:21:20.464Z,101151.50
2022-09-11T06:23:49.939Z,101159.38
2022-09-11T06:26:22.301Z,101152.16
2022-09-11T06:28:50.883Z,101159.69
2022-09-11T06:31:20.699Z,101157.38
2022-09-11T06:33:49.198Z,101158.13
2022-09-11T06:36:18.857Z,101157.97
2022-09-11T06:38:47.491Z,101154.59
2022-09-11T06:41:17.103Z,101152.59
2022-09-11T06:43:46.258Z,101151.59
2022-09-11T06:46:15.994Z,101150.34
2022-09-11T06:48:45.473Z,101154.97
2022-09-11T06:51:15.768Z,101152.28
2022-09-11T06:53:44.099Z,101154.31
2022-09-11T06:56:14.418Z,101158.81
2022-09-11T06:58:43.090Z,101163.25
2022-09-11T07:01:14.185Z,101153.22
2022-09-11T07:03:43.968Z,101159.63
2022-09-11T07:06:12.250Z,101154.09
2022-09-11T07:08:40.183Z,101164.94
2022-09-11T07:11:09.398Z,101160.75
2022-09-11T07:13:38.616Z,101164.47
2022-09-11T07:16:08.805Z,101166.06
2022-09-11T07:18:39.758Z,101156.34
2022-09-11T07:21:09.594Z,101152.28
2022-09-11T07:23:37.364Z,101159.34
2022-09-11T07:26:06.067Z,101152.94
2022-09-11T07:28:36.066Z,101155.03
2022-09-11T07:31:07.804Z,101151.66
2022-09-11T07:33:39.504Z,101155.97
2022-09-11T07:36:11.825Z,101154.97
2022-09-11T07:38:40.875Z,101154.66
2022-09-11T07:41:08.890Z,101154.31
2022-09-11T07:43:36.765Z,101154.22
2022-09-11T07:46:05.422Z,101153.00
2022-09-11T07:48:34.114Z,101153.47
2022-09-11T07:51:05.053Z,101156.22
2022-09-11T07:53:35.162Z,101156.34
2022-09-11T07:56:04.712Z,101157.91
2022-09-11T07:58:36.159Z,101165.06
2022-09-11T08:01:05.295Z,101153.91
2022-09-11T08:03:34.325Z,101160.53
2022-09-11T08:06:05.659Z,101169.00
2022-09-11T08:08:33.849Z,101165.97
2022-09-11T08:11:04.559Z,101170.38
2022-09-11T08:13:32.269Z,101170.75
2022-09-11T08:16:00.382Z,101169.25
2022-09-11T08:18:28.595Z,101173.47
2022-09-11T08:21:04.463Z,101175.63
2022-09-11T08:23:33.182Z,101189.31
2022-09-11T08:26:06.120Z,101179.31
2022-09-11T08:28:34.516Z,101176.34
2022-09-11T08:31:02.715Z,101177.78
2022-09-11T08:33:31.142Z,101185.53
2022-09-11T08:35:59.226Z,101197.13
2022-09-11T08:38:28.842Z,101196.38
2022-09-11T08:40:58.960Z,101198.13
2022-09-11T08:43:32.351Z,101195.66
2022-09-11T08:46:06.399Z,101196.41
2022-09-11T08:48:41.093Z,101201.84
2022-09-11T08:51:11.545Z,101200.44
2022-09-11T08:53:40.763Z,101206.31
2022-09-11T08:56:13.409Z,101203.28
2022-09-11T08:58:57.834Z,101209.66
2022-09-11T09:01:32.017Z,101204.91
2022-09-11T09:04:21.365Z,101194.56
2022-09-11T09:06:59.080Z,101192.63
2022-09-11T09:09:37.253Z,101196.41
2022-09-11T09:12:16.003Z,101196.75
2022-09-11T09:15:08.009Z,101190.69
2022-09-11T09:17:41.848Z,101200.13
2022-09-11T09:20:14.619Z,101194.75
2022-09-11T09:22:46.744Z,101195.53
2022-09-11T09:25:24.324Z,101197.09
2022-09-11T09:28:01.072Z,101201.00
2022-09-11T09:30:35.545Z,101188.91
2022-09-11T09:33:20.616Z,101201.75
2022-09-11T09:35:48.555Z,101200.13
2022-09-11T09:38:21.776Z,101202.13
2022-09-11T09:41:00.158Z,101204.00
2022-09-11T09:43:41.279Z,101205.22
2022-09-11T09:46:22.933Z,101203.34
2022-09-11T09:48:52.070Z,101193.53
2022-09-11T09:51:19.870Z,101199.41
2022-09-11T09:53:53.221Z,101212.69
2022-09-11T09:56:27.191Z,101206.81
2022-09-11T09:59:03.787Z,101202.16
2022-09-11T10:01:50.096Z,101215.00
2022-09-11T10:04:23.831Z,101217.31
2022-09-11T10:07:06.933Z,101210.25
2022-09-11T10:09:35.268Z,101221.13
2022-09-11T10:12:07.337Z,101222.31
2022-09-11T10:14:51.650Z,101219.28
2022-09-11T10:17:24.845Z,101219.31
2022-09-11T10:19:55.646Z,101214.28
2022-09-11T10:22:29.363Z,101216.63
2022-09-11T10:25:12.250Z,101209.63
2022-09-11T10:27:46.964Z,101211.81
2022-09-11T10:30:30.387Z,101196.03
2022-09-11T10:33:03.511Z,101198.81
2022-09-11T10:35:33.175Z,101202.97
2022-09-11T10:38:18.001Z,101218.56
2022-09-11T10:41:19.193Z,101229.47
2022-09-11T10:43:55.902Z,101234.38
2022-09-11T10:46:40.575Z,101250.09
2022-09-11T10:49:16.910Z,101274.03
2022-09-11T10:51:59.665Z,101278.50
2022-09-11T10:54:41.188Z,101282.00
2022-09-11T10:57:19.665Z,101295.50
2022-09-11T11:00:02.120Z,101299.81
2022-09-11T11:02:33.134Z,101296.28
2022-09-11T11:05:08.083Z,101297.34
2022-09-11T11:08:05.489Z,101291.06
2022-09-11T11:10:51.806Z,101294.53
2022-09-11T11:13:40.192Z,101291.13
2022-09-11T11:16:21.214Z,101293.72
2022-09-11T11:19:08.197Z,101286.09
2022-09-11T11:21:53.862Z,101279.22
2022-09-11T11:24:37.484Z,101270.75
2022-09-11T11:27:27.769Z,101258.78
2022-09-11T11:30:10.820Z,101250.00
2022-09-11T11:33:01.864Z,101245.16
2022-09-11T11:35:35.846Z,101253.13
2022-09-11T11:38:11.586Z,101253.56
2022-09-11T11:40:46.282Z,101262.19
2022-09-11T11:43:17.428Z,101250.91
2022-09-11T11:45:47.950Z,101247.94
2022-09-11T11:48:21.560Z,101250.53
2022-09-11T11:50:55.291Z,101235.75
2022-09-11T11:53:26.891Z,101235.38
2022-09-11T11:56:05.799Z,101234.97
2022-09-11T11:58:45.644Z,101243.19
2022-09-11T12:01:19.155Z,101238.47
2022-09-11T12:03:56.840Z,101241.19
2022-09-11T12:06:24.507Z,101242.28
2022-09-11T12:08:53.443Z,101234.00
2022-09-11T12:11:32.059Z,101241.84
2022-09-11T12:14:01.141Z,101249.63
2022-09-11T12:20:15.507Z,101252.78
2022-09-11T12:22:45.229Z,101252.13
2022-09-11T12:25:46.385Z,101248.66
2022-09-11T12:28:22.759Z,101247.88
2022-09-11T12:30:58.054Z,101238.91
2022-09-11T12:33:54.396Z,101245.16
2022-09-11T12:36:30.046Z,101243.97
2022-09-11T12:39:01.377Z,101241.63
2022-09-11T12:41:31.617Z,101241.63
2022-09-11T12:44:00.733Z,101241.63
2022-09-11T12:47:13.991Z,101250.59
2022-09-11T12:49:52.000Z,101250.63
2022-09-11T12:52:33.927Z,101248.28
2022-09-11T12:55:29.875Z,101256.41
2022-09-11T12:58:10.281Z,101256.72
2022-09-11T13:00:41.846Z,101259.75
2022-09-11T13:03:19.316Z,101253.41
2022-09-11T13:05:55.176Z,101254.53
2022-09-11T13:08:27.822Z,101255.63
2022-09-11T13:11:38.713Z,101252.59
2022-09-11T13:14:26.840Z,101264.31
2022-09-11T13:16:55.525Z,101257.75
2022-09-11T13:19:30.555Z,101247.75
2022-09-11T13:22:04.543Z,101246.94
2022-09-11T13:24:35.979Z,101244.31
2022-09-11T13:27:08.472Z,101247.06
2022-09-11T13:29:40.116Z,101242.00
2022-09-11T13:32:11.644Z,101239.63
2022-09-11T13:34:39.871Z,101245.47
2022-09-11T13:37:11.947Z,101250.94
2022-09-11T13:39:43.764Z,101240.06
2022-09-11T13:42:16.340Z,101237.72
2022-09-11T13:44:47.024Z,101242.41
2022-09-11T13:47:20.216Z,101233.06
2022-09-11T13:49:49.994Z,101226.81
2022-09-11T13:52:21.948Z,101225.63
2022-09-11T13:54:54.206Z,101220.16
2022-09-11T13:57:24.054Z,101225.63
2022-09-11T13:59:54.200Z,101225.63
2022-09-11T14:02:49.731Z,101227.19
2022-09-11T14:05:21.969Z,101219.75
2022-09-11T14:08:01.931Z,101210.00
2022-09-11T14:10:33.363Z,101208.00
2022-09-11T14:13:10.426Z,101202.47
2022-09-11T14:15:42.890Z,101198.94
2022-09-11T14:18:20.911Z,101208.72
2022-09-11T14:20:48.679Z,101202.13
2022-09-11T14:23:24.206Z,101208.00
2022-09-11T14:26:08.330Z,101208.03
2022-09-11T14:28:47.845Z,101215.88
2022-09-11T14:31:29.462Z,101217.03
2022-09-11T14:34:18.558Z,101221.31
2022-09-11T14:36:53.767Z,101215.88
2022-09-11T14:39:34.180Z,101216.59
2022-09-11T14:42:04.944Z,101217.34
2022-09-11T14:44:33.904Z,101223.66
2022-09-11T14:47:01.618Z,101218.97
2022-09-11T14:49:29.604Z,101226.41
2022-09-11T14:52:00.977Z,101223.28
2022-09-11T14:54:31.778Z,101234.97
2022-09-11T14:56:59.724Z,101242.38
2022-09-11T14:59:30.068Z,101248.50
2022-09-11T15:01:59.185Z,101261.69
2022-09-11T15:04:27.392Z,101266.63
2022-09-11T15:06:56.472Z,101278.72
2022-09-11T15:09:25.218Z,101279.16
2022-09-11T15:11:53.061Z,101279.56
2022-09-11T15:14:44.727Z,101273.38
2022-09-11T15:17:14.668Z,101282.69
2022-09-11T15:19:42.793Z,101277.59
2022-09-11T15:22:11.623Z,101269.31
2022-09-11T15:24:39.311Z,101268.94
2022-09-11T15:27:07.447Z,101259.47
2022-09-11T15:29:36.133Z,101261.81
2022-09-11T15:32:04.302Z,101258.34
2022-09-11T15:34:33.412Z,101259.50
2022-09-11T15:37:01.563Z,101262.94
2022-09-11T15:39:29.558Z,101264.81
2022-09-11T15:41:57.959Z,101267.91
2022-09-11T15:44:29.647Z,101259.69
2022-09-11T15:46:59.129Z,101252.97
2022-09-11T15:49:30.444Z,101261.50
2022-09-11T15:52:00.371Z,101257.50
2022-09-11T15:54:29.577Z,101260.31
2022-09-11T15:56:57.348Z,101247.66
2022-09-11T15:59:25.092Z,101253.88
2022-09-11T16:01:52.849Z,101257.72
2022-09-11T16:04:21.945Z,101256.59
2022-09-11T16:06:50.496Z,101263.88
2022-09-11T16:09:21.623Z,101267.38
2022-09-11T16:11:50.517Z,101272.00
2022-09-11T16:14:21.277Z,101266.25
2022-09-11T16:16:49.341Z,101270.97
2022-09-11T16:19:18.590Z,101265.25
2022-09-11T16:21:47.516Z,101254.66
2022-09-11T16:24:15.919Z,101241.44
2022-09-11T16:26:45.580Z,101250.66
2022-09-11T16:29:18.055Z,101252.69
2022-09-11T16:31:45.827Z,101249.19
2022-09-11T16:34:15.080Z,101253.53
2022-09-11T16:36:42.936Z,101254.44
2022-09-11T16:39:13.024Z,101247.84
2022-09-11T16:41:43.694Z,101250.88
2022-09-11T16:44:19.451Z,101247.28
2022-09-11T16:46:51.194Z,101243.69
2022-09-11T16:49:26.446Z,101247.09
2022-09-11T16:51:58.719Z,101250.09
2022-09-11T16:54:30.845Z,101250.75
2022-09-11T16:57:06.001Z,101248.03
2022-09-11T16:59:49.535Z,101255.47
2022-09-11T17:02:24.402Z,101262.06
2022-09-11T17:04:56.293Z,101264.31
2022-09-11T17:07:31.688Z,101262.41
2022-09-11T17:10:04.075Z,101266.59
2022-09-11T17:12:45.770Z,101279.50
2022-09-11T17:15:20.749Z,101279.16
2022-09-11T17:17:55.977Z,101276.81
2022-09-11T17:20:23.785Z,101277.25
2022-09-11T17:22:58.402Z,101274.19
2022-09-11T17:25:27.005Z,101282.66
2022-09-11T17:27:57.403Z,101278.31
2022-09-11T17:30:26.537Z,101281.38
2022-09-11T17:32:54.273Z,101283.03
2022-09-11T17:35:22.051Z,101288.19
2022-09-11T17:37:50.556Z,101282.97
2022-09-11T17:40:18.826Z,101286.88
2022-09-11T17:42:47.918Z,101287.31
2022-09-11T17:45:16.277Z,101293.28
2022-09-11T17:47:45.582Z,101296.72
2022-09-11T17:50:15.043Z,101294.53
2022-09-11T17:52:42.655Z,101299.38
2022-09-11T17:55:11.174Z,101294.31
2022-09-11T17:57:40.659Z,101302.09
2022-09-11T18:00:09.838Z,101298.03
2022-09-11T18:02:37.740Z,101298.75
2022-09-11T18:05:08.137Z,101301.78
2022-09-11T18:07:35.942Z,101298.03
2022-09-11T18:10:03.944Z,101293.09
2022-09-11T18:12:35.155Z,101294.75
2022-09-11T18:15:03.847Z,101297.91
2022-09-11T18:17:32.004Z,101295.59
2022-09-11T18:19:59.728Z,101297.91
2022-09-11T18:22:29.840Z,101300.47
2022-09-11T18:24:59.869Z,101309.28
2022-09-11T18:27:29.758Z,101313.09
2022-09-11T18:29:57.677Z,101304.50
2022-09-11T18:32:26.217Z,101316.44
2022-09-11T18:34:54.034Z,101315.28
2022-09-11T18:37:22.118Z,101319.94
2022-09-11T18:39:51.233Z,101317.50
2022-09-11T18:42:19.075Z,101326.88
2022-09-11T18:44:46.798Z,101328.94
2022-09-11T18:47:14.505Z,101326.28
2022-09-11T18:49:42.178Z,101328.22
2022-09-11T18:52:10.765Z,101327.88
2022-09-11T18:54:38.651Z,101324.22
2022-09-11T18:57:08.231Z,101329.88
2022-09-11T18:59:35.921Z,101336.69
2022-09-11T19:02:03.704Z,101332.09
2022-09-11T19:04:31.857Z,101346.75
2022-09-11T19:07:00.288Z,101346.31
2022-09-11T19:09:29.259Z,101347.19
2022-09-11T19:11:57.966Z,101357.22
2022-09-11T19:14:27.221Z,101357.94
2022-09-11T19:16:54.878Z,101362.94
2022-09-11T19:19:22.814Z,101367.88
2022-09-11T19:21:50.682Z,101369.31
2022-09-11T19:24:19.185Z,101373.47
2022-09-11T19:26:47.698Z,101374.25
2022-09-11T19:29:15.864Z,101376.53
2022-09-11T19:31:45.107Z,101380.78
2022-09-11T19:34:13.688Z,101381.84
2022-09-11T19:36:42.118Z,101389.63
2022-09-11T19:39:11.534Z,101390.78
2022-09-11T19:41:40.540Z,101394.16
2022-09-11T19:44:12.141Z,101406.78
2022-09-11T19:46:41.596Z,101399.50
2022-09-11T19:49:11.743Z,101406.84
2022-09-11T19:51:41.333Z,101407.34
2022-09-11T19:54:11.421Z,101403.13
2022-09-11T19:56:40.168Z,101408.09
2022-09-11T19:59:08.838Z,101408.78
2022-09-11T20:01:36.977Z,101410.19
2022-09-11T20:04:05.283Z,101411.69
2022-09-11T20:06:36.249Z,101403.63
2022-09-11T20:09:31.325Z,101409.06
2022-09-11T20:11:53.608Z,101407.56
2022-09-11T20:14:21.297Z,101403.53
2022-09-11T20:16:49.093Z,101414.00
2022-09-11T20:19:17.385Z,101409.75
2022-09-11T20:21:46.488Z,101406.09
2022-09-11T20:24:15.026Z,101409.06
2022-09-11T20:26:43.023Z,101406.34
2022-09-11T20:29:15.910Z,101414.16
2022-09-11T20:31:49.058Z,101411.44
2022-09-11T20:34:18.320Z,101409.25
2022-09-11T20:36:47.391Z,101399.88
2022-09-11T20:39:16.051Z,101404.09
2022-09-11T20:41:43.925Z,101403.84
2022-09-11T20:44:12.140Z,101400.59
2022-09-11T20:46:40.345Z,101403.84
2022-09-11T20:49:08.046Z,101397.63
2022-09-11T20:51:35.827Z,101399.09
2022-09-11T20:54:05.003Z,101393.84
2022-09-11T20:56:32.690Z,101394.53
2022-09-11T20:59:00.902Z,101401.53
2022-09-11T21:01:32.349Z,101393.53
2022-09-11T21:04:01.076Z,101392.34
2022-09-11T21:06:31.186Z,101395.91
2022-09-11T21:09:00.853Z,101386.13
2022-09-11T21:11:31.137Z,101391.00
2022-09-11T21:13:59.738Z,101390.41
2022-09-11T21:16:27.895Z,101394.72
2022-09-11T21:18:57.309Z,101394.66
2022-09-11T21:21:26.759Z,101395.78
2022-09-11T21:23:55.881Z,101389.69
2022-09-11T21:26:26.103Z,101388.06
2022-09-11T21:28:55.296Z,101385.03
2022-09-11T21:31:23.056Z,101382.63
2022-09-11T21:33:50.768Z,101379.78
2022-09-11T21:36:18.522Z,101380.84
2022-09-11T21:38:46.394Z,101386.28
2022-09-11T21:41:15.035Z,101390.03
2022-09-11T21:43:42.823Z,101391.22
2022-09-11T21:46:12.153Z,101381.34
2022-09-11T21:48:41.791Z,101392.53
2022-09-11T21:51:11.753Z,101387.63
2022-09-11T21:53:40.249Z,101386.03
2022-09-11T21:56:16.117Z,101392.28
2022-09-11T21:58:43.848Z,101379.25
2022-09-11T22:01:13.983Z,101373.81
2022-09-11T22:03:41.813Z,101372.38
2022-09-11T22:06:11.180Z,101364.22
2022-09-11T22:08:39.828Z,101375.66
2022-09-11T22:11:08.629Z,101377.50
2022-09-11T22:13:37.064Z,101379.09
2022-09-11T22:16:06.944Z,101376.78
2022-09-11T22:18:36.567Z,101378.88
2022-09-11T22:21:04.932Z,101382.81
2022-09-11T22:23:33.092Z,101386.84
2022-09-11T22:26:02.835Z,101380.75
2022-09-11T22:28:30.681Z,101386.53
2022-09-11T22:30:58.392Z,101386.31
2022-09-11T22:33:26.312Z,101373.59
2022-09-11T22:35:55.418Z,101381.38
2022-09-11T22:38:23.141Z,101379.34
2022-09-11T22:40:54.429Z,101377.94
2022-09-11T22:43:22.108Z,101379.00
2022-09-11T22:45:53.541Z,101374.56
2022-09-11T22:48:21.448Z,101370.78
2022-09-11T22:50:49.096Z,101382.09
2022-09-11T22:53:18.193Z,101378.13
2022-09-11T22:55:46.754Z,101380.50
2022-09-11T22:58:14.490Z,101378.16
2022-09-11T23:00:44.076Z,101378.75
2022-09-11T23:03:12.108Z,101384.81
2022-09-11T23:05:57.886Z,101381.13
2022-09-11T23:08:29.399Z,101381.75
2022-09-11T23:11:00.745Z,101380.00
2022-09-11T23:13:29.902Z,101383.34
2022-09-11T23:15:57.839Z,101385.31
2022-09-11T23:18:27.340Z,101380.69
2022-09-11T23:20:55.085Z,101383.31
2022-09-11T23:23:23.150Z,101383.34
2022-09-11T23:25:52.968Z,101388.41
2022-09-11T23:28:20.712Z,101376.47
2022-09-11T23:30:48.510Z,101388.97
2022-09-11T23:33:16.229Z,101382.25
2022-09-11T23:35:43.848Z,101380.47
2022-09-11T23:38:11.552Z,101378.53
2022-09-11T23:40:39.244Z,101378.00
2022-09-11T23:43:08.214Z,101377.31
2022-09-11T23:45:36.038Z,101382.50
2022-09-11T23:48:03.932Z,101376.66
2022-09-11T23:50:31.645Z,101380.25
2022-09-11T23:52:59.272Z,101374.38
2022-09-11T23:55:26.959Z,101365.72
2022-09-11T23:57:55.333Z,101367.94
